ADDS METAR Data INFO
IDs: Format: Raw Decoded Include TAF

Data at: 0712 UTC 19 Oct 2017

KMEV 190655Z AUTO 11007KT 10SM CLR 03/M04 A3005 RMK AO2
KMEV 190635Z AUTO 08003KT 10SM CLR 04/M05 A3005 RMK AO2
KMEV 190615Z AUTO 00000KT 10SM CLR 05/M04 A3006 RMK AO2
KMEV 190555Z AUTO 10004KT 10SM CLR 07/M04 A3006 RMK AO2
KMEV 190535Z AUTO 00000KT 10SM CLR 06/M04 A3006 RMK AO2
KMEV 190515Z AUTO 07004KT 10SM CLR 07/M04 A3006 RMK AO2
KMEV 190455Z AUTO 07006KT 10SM CLR 08/M03 A3006 RMK AO2
KMEV 190435Z AUTO 10007KT 10SM CLR 08/M04 A3006 RMK AO2
KMEV 190415Z AUTO 12005KT 10SM CLR 09/M04 A3006 RMK AO2
KMEV 190355Z AUTO 13006KT 10SM CLR 09/M04 A3006 RMK AO2
KMEV 190335Z AUTO 15008KT 10SM CLR 07/M02 A3006 RMK AO2
KMEV 190315Z AUTO 19004KT 10SM CLR 08/M02 A3006 RMK AO2
KMEV 190255Z AUTO 00000KT 10SM CLR 10/M02 A3006 RMK AO2
KMEV 190235Z AUTO 05003KT 10SM CLR 12/M03 A3006 RMK AO2
KMEV 190215Z AUTO 34003KT 7SM CLR 15/M03 A3005 RMK AO2
KMEV 190155Z AUTO 35005KT 8SM CLR 16/M03 A3005 RMK AO2
KMEV 190135Z AUTO 01006KT 7SM CLR 17/M03 A3004 RMK AO2
KMEV 190115Z AUTO 33005KT 4SM HZ CLR 19/M03 A3004 RMK AO2
KMEV 190055Z AUTO 33005KT 8SM CLR 20/M02 A3004 RMK AO2
KMEV 190035Z AUTO 30008KT 10SM CLR 22/M02 A3005 RMK AO2
KMEV 190015Z AUTO 30009KT 10SM CLR 23/M02 A3005 RMK AO2
KMEV 182355Z AUTO 30008KT 10SM CLR 24/M03 A3005 RMK AO2
KMEV 182335Z AUTO 28005KT 8SM CLR 24/M05 A3006 RMK AO2
KMEV 182315Z AUTO 29004KT 8SM CLR 25/M06 A3006 RMK AO2
KMEV 182255Z AUTO 31004KT 8SM CLR 24/M07 A3007 RMK AO2
KMEV 182235Z AUTO 00000KT 5SM HZ CLR 24/M08 A3007 RMK AO2
KMEV 182215Z AUTO 00000KT 10SM CLR 25/M11 A3008 RMK AO2
KMEV 182155Z AUTO 00000KT 10SM CLR 24/M11 A3008 RMK AO2
KMEV 182135Z AUTO 02003KT 10SM CLR 24/M13 A3009 RMK AO2
KMEV 182115Z AUTO 01003KT 10SM CLR 23/M08 A3010 RMK AO2
KMEV 182055Z AUTO 00000KT 10SM CLR 22/M08 A3011 RMK AO2
KMEV 182035Z AUTO 00000KT 10SM CLR 22/M04 A3013 RMK AO2
KMEV 182015Z AUTO 00000KT 10SM CLR 21/M04 A3014 RMK AO2
KMEV 181955Z AUTO 32003KT 10SM CLR 20/M03 A3015 RMK AO2
KMEV 181935Z AUTO 00000KT 10SM CLR 19/M03 A3017 RMK AO2
KMEV 181915Z AUTO 00000KT 10SM CLR 18/M03 A3018 RMK AO2
KMEV 181855Z AUTO 00000KT 10SM CLR 17/M03 A3019 RMK AO2
KMEV 181835Z AUTO 22003KT 9SM CLR 15/M03 A3019 RMK AO2
KMEV 181815Z AUTO 00000KT 10SM CLR 14/M04 A3020 RMK AO2
KMEV 181755Z AUTO 00000KT 10SM CLR 13/M04 A3021 RMK AO2
KMEV 181735Z AUTO 00000KT 10SM CLR 12/M04 A3022 RMK AO2
KMEV 181715Z AUTO 00000KT 10SM CLR 10/M03 A3023 RMK AO2
KMEV 181655Z AUTO 00000KT 10SM CLR 09/M03 A3023 RMK AO2
KMEV 181635Z AUTO 00000KT 10SM CLR 08/M04 A3024 RMK AO2
KMEV 181615Z AUTO 00000KT 10SM CLR 06/M05 A3024 RMK AO2
KMEV 181555Z AUTO 27003KT 10SM CLR 04/M06 A3024 RMK AO2
KMEV 181535Z AUTO 00000KT 10SM CLR 02/M07 A3023 RMK AO2
KMEV 181515Z AUTO 00000KT 10SM CLR M01/M07 A3023 RMK AO2
KMEV 181455Z AUTO 00000KT 10SM CLR M03/M08 A3023 RMK AO2
KMEV 181435Z AUTO 00000KT 10SM CLR M04/M07 A3023 RMK AO2
KMEV 181415Z AUTO 10004KT 10SM CLR M05/M09 A3023 RMK AO2
KMEV 181355Z AUTO 14004KT 10SM CLR M04/M08 A3023 RMK AO2
KMEV 181335Z AUTO 14004KT 10SM CLR M03/M08 A3022 RMK AO2
KMEV 181315Z AUTO 00000KT 10SM CLR M04/M09 A3022 RMK AO2
KMEV 181255Z AUTO 00000KT 10SM CLR M03/M08 A3022 RMK AO2
KMEV 181235Z AUTO 00000KT 10SM CLR M03/M08 A3022 RMK AO2
KMEV 181215Z AUTO 06004KT 10SM M04/M09 A3021 RMK AO2
KMEV 181155Z AUTO 06003KT 10SM M02/M08 A3021 RMK AO2
KMEV 181135Z AUTO 00000KT 10SM M02/M07 A3021 RMK AO2
KMEV 181115Z AUTO 00000KT 10SM M04/M09 A3021 RMK AO2
KMEV 181055Z AUTO 16005KT 10SM M02/M08 A3021 RMK AO2
KMEV 181035Z AUTO 14005KT 10SM M04/M09 A3022 RMK AO2
KMEV 181015Z AUTO 00000KT 10SM M03/M09 A3022 RMK AO2
KMEV 180955Z AUTO 00000KT 10SM M03/M08 A3022 RMK AO2
KMEV 180935Z AUTO 09003KT 10SM M03/M09 A3023 RMK AO2
KMEV 180915Z AUTO 01003KT 10SM M02/M08 A3023 RMK AO2
KMEV 180855Z AUTO 00000KT 10SM M02/M09 A3022 RMK AO2
KMEV 180835Z AUTO 00000KT 10SM 00/M09 A3022 RMK AO2
KMEV 180815Z AUTO 10003KT 10SM 01/M07 A3022 RMK AO2
KMEV 180755Z AUTO 13006KT 10SM 00/M08 A3022 RMK AO2
KMEV 180735Z AUTO 13009KT 10SM 00/M08 A3022 RMK AO2
KMEV 180715Z AUTO 11004KT 10SM CLR 00/M09 A3022 RMK AO2
KMEV 180655Z AUTO 00000KT 10SM CLR 00/M10 A3023 RMK AO2
KMEV 180635Z AUTO 00000KT 10SM CLR 03/M09 A3023 RMK AO2
KMEV 180615Z AUTO 00000KT 10SM CLR 02/M09 A3022 RMK AO2
KMEV 180555Z AUTO 00000KT 10SM CLR 03/M09 A3022 RMK AO2
KMEV 180535Z AUTO 12005KT 10SM CLR 04/M09 A3022 RMK AO2
KMEV 180515Z AUTO 11007KT 10SM CLR 04/M10 A3021 RMK AO2
KMEV 180455Z AUTO 14004KT 10SM CLR 05/M09 A3021 RMK AO2
KMEV 180435Z AUTO 34004KT 10SM 05/M08 A3021 RMK AO2
KMEV 180415Z AUTO 11005KT 10SM CLR 07/M09 A3021 RMK AO2
KMEV 180355Z AUTO 13003KT 10SM CLR 07/M09 A3020 RMK AO2
KMEV 180335Z AUTO 00000KT 10SM 07/M09 A3020 RMK AO2
KMEV 180315Z AUTO 12009KT 10SM CLR 07/M06 A3019 RMK AO2
KMEV 180255Z AUTO 10010KT 10SM CLR 08/M08 A3018 RMK AO2
KMEV 180235Z AUTO 09006KT 10SM CLR 09/M07 A3019 RMK AO2
KMEV 180215Z AUTO 07007KT 10SM CLR 11/M06 A3019 RMK AO2
KMEV 180155Z AUTO 12005KT 10SM CLR 12/M07 A3018 RMK AO2
KMEV 180135Z AUTO 29005KT 10SM CLR 17/M06 A3017 RMK AO2
KMEV 180115Z AUTO 28010G14KT 10SM CLR 18/M08 A3017 RMK AO2
KMEV 180055Z AUTO 26009KT 10SM CLR 19/M08 A3016 RMK AO2
KMEV 180035Z AUTO 28011G17KT 10SM CLR 22/M09 A3016 RMK AO2
KMEV 180015Z AUTO 28009KT 10SM CLR 21/M10 A3016 RMK AO2
KMEV 172355Z AUTO 29007KT 10SM CLR 21/M09 A3017 RMK AO2
KMEV 172335Z AUTO 10SM CLR 22/M10 A3017 RMK AO2
KMEV 172315Z AUTO 28010G17KT 10SM CLR 22/M09 A3017 RMK AO2
KMEV 172255Z AUTO 28011KT 10SM CLR 23/M09 A3017 RMK AO2
KMEV 172235Z AUTO 27007KT 10SM CLR 23/M09 A3017 RMK AO2
KMEV 172215Z AUTO 25007KT 10SM CLR 23/M07 A3017 RMK AO2
KMEV 172155Z AUTO 29007KT 10SM CLR 23/M09 A3017 RMK AO2
KMEV 172135Z AUTO 24004KT 10SM CLR 24/M08 A3018 RMK AO2
KMEV 172115Z AUTO 26004KT 10SM CLR 24/M08 A3018 RMK AO2
KMEV 172055Z AUTO 00000KT 10SM CLR 24/M10 A3019 RMK AO2
KMEV 172035Z AUTO 00000KT 10SM CLR 23/M10 A3020 RMK AO2
KMEV 172015Z AUTO 35007KT 10SM CLR 23/M10 A3020 RMK AO2
KMEV 171955Z AUTO 36005KT 10SM CLR 23/M10 A3021 RMK AO2
KMEV 171935Z AUTO 35003KT 10SM CLR 20/M07 A3022 RMK AO2
KMEV 171915Z AUTO 25003KT 10SM CLR 19/M06 A3023 RMK AO2